createdAt,value
2022-11-06T00:01:21.885Z,8.52
2022-11-06T00:03:48.821Z,6.60
2022-11-06T00:06:35.827Z,5.13
2022-11-06T00:09:06.142Z,6.47
2022-11-06T00:11:33.389Z,8.32
2022-11-06T00:14:01.266Z,7.78
2022-11-06T00:16:28.412Z,8.32
2022-11-06T00:18:55.725Z,5.07
2022-11-06T00:21:28.187Z,4.35
2022-11-06T00:24:06.795Z,6.07
2022-11-06T00:26:34.968Z,5.20
2022-11-06T00:29:03.333Z,6.32
2022-11-06T00:31:32.940Z,5.43
2022-11-06T00:34:01.113Z,4.18
2022-11-06T00:36:32.537Z,4.97
2022-11-06T00:39:00.184Z,4.47
2022-11-06T00:41:27.500Z,5.55
2022-11-06T00:43:58.200Z,4.75
2022-11-06T00:46:25.535Z,3.40
2022-11-06T00:48:53.378Z,6.55
2022-11-06T00:51:29.570Z,4.97
2022-11-06T00:54:02.547Z,5.18
2022-11-06T00:56:30.834Z,3.45
2022-11-06T00:59:00.390Z,4.88
2022-11-06T01:01:33.182Z,3.67
2022-11-06T01:04:03.283Z,4.85
2022-11-06T01:06:34.516Z,5.40
2022-11-06T01:09:01.432Z,4.53
2022-11-06T01:11:52.555Z,4.15
2022-11-06T01:14:20.709Z,3.38
2022-11-06T01:16:48.363Z,3.67
2022-11-06T01:19:17.265Z,4.15
2022-11-06T01:21:46.073Z,4.97
2022-11-06T01:24:19.442Z,3.67
2022-11-06T01:27:11.979Z,4.70
2022-11-06T01:29:33.579Z,3.58
2022-11-06T01:32:00.543Z,3.05
2022-11-06T01:34:27.448Z,5.85
2022-11-06T01:36:54.351Z,5.00
2022-11-06T01:39:21.316Z,6.03
2022-11-06T01:41:50.901Z,6.88
2022-11-06T01:44:36.031Z,4.25
2022-11-06T01:47:15.920Z,5.10
2022-11-06T01:49:42.958Z,3.63
2022-11-06T01:52:12.945Z,5.68
2022-11-06T01:54:42.035Z,4.40
2022-11-06T01:57:10.629Z,3.78
2022-11-06T01:59:42.827Z,6.70
2022-11-06T02:02:10.271Z,5.05
2022-11-06T02:04:41.978Z,4.75
2022-11-06T02:07:09.111Z,4.43
2022-11-06T02:09:36.084Z,5.38
2022-11-06T02:12:02.945Z,5.13
2022-11-06T02:14:32.514Z,4.55
2022-11-06T02:17:18.521Z,7.32
2022-11-06T02:19:48.553Z,3.83
2022-11-06T02:22:37.070Z,4.60
2022-11-06T02:25:19.046Z,4.65
2022-11-06T02:27:53.458Z,5.60
2022-11-06T02:30:20.532Z,5.35
2022-11-06T02:32:59.873Z,5.85
2022-11-06T02:35:42.195Z,5.00
2022-11-06T02:38:13.119Z,8.60
2022-11-06T02:40:45.041Z,7.78
2022-11-06T02:43:14.015Z,6.50
2022-11-06T02:46:12.505Z,6.75
2022-11-06T02:49:07.364Z,4.88
2022-11-06T02:51:40.089Z,8.73
2022-11-06T02:54:08.440Z,6.05
2022-11-06T02:56:39.717Z,8.32
2022-11-06T02:59:12.031Z,7.28
2022-11-06T03:02:18.776Z,7.68
2022-11-06T03:04:55.508Z,15.93
2022-11-06T03:07:42.547Z,7.10
2022-11-06T03:10:10.703Z,7.20
2022-11-06T03:13:01.995Z,8.00
2022-11-06T03:15:33.604Z,7.80
2022-11-06T03:18:10.115Z,8.10
2022-11-06T03:20:51.707Z,9.27
2022-11-06T03:23:41.602Z,9.18
2022-11-06T03:26:20.108Z,6.57
2022-11-06T03:29:43.818Z,7.22
2022-11-06T03:32:31.898Z,7.63
2022-11-06T03:35:13.132Z,8.23
2022-11-06T03:37:47.088Z,8.75
2022-11-06T03:40:17.169Z,9.07
2022-11-06T03:42:46.164Z,13.47
2022-11-06T03:45:18.793Z,8.68
2022-11-06T03:47:53.191Z,17.00
2022-11-06T03:50:44.996Z,11.60
2022-11-06T03:53:18.094Z,9.43
2022-11-06T03:55:51.657Z,10.43
2022-11-06T03:58:23.437Z,9.45
2022-11-06T04:00:53.180Z,11.05
2022-11-06T04:03:36.283Z,9.07
2022-11-06T04:06:41.651Z,6.35
2022-11-06T04:09:30.031Z,7.82
2022-11-06T04:12:17.695Z,12.00
2022-11-06T04:14:47.490Z,10.82
2022-11-06T04:17:16.258Z,11.57
2022-11-06T04:19:49.634Z,10.65
2022-11-06T04:22:24.980Z,14.93
2022-11-06T04:25:10.244Z,14.20
2022-11-06T04:27:57.028Z,10.88
2022-11-06T04:30:24.748Z,11.02
2022-11-06T04:33:13.798Z,13.32
2022-11-06T04:35:48.715Z,13.80
2022-11-06T04:38:27.079Z,17.17
2022-11-06T04:41:14.873Z,11.50
2022-11-06T04:43:54.400Z,13.45
2022-11-06T04:46:30.474Z,10.30
2022-11-06T04:48:58.021Z,12.00
2022-11-06T04:51:30.971Z,10.60
2022-11-06T04:53:58.087Z,16.15
2022-11-06T04:56:34.890Z,17.63
2022-11-06T04:59:04.148Z,11.80
2022-11-06T05:01:31.140Z,18.35
2022-11-06T05:03:58.165Z,16.63
2022-11-06T05:06:29.615Z,16.02
2022-11-06T05:08:58.311Z,11.57
2022-11-06T05:11:25.232Z,17.40
2022-11-06T05:13:52.169Z,15.68
2022-11-06T05:16:19.083Z,17.00
2022-11-06T05:18:45.931Z,16.85
2022-11-06T05:21:31.501Z,15.45
2022-11-06T05:23:58.321Z,14.07
2022-11-06T05:26:25.557Z,24.00
2022-11-06T05:28:52.418Z,17.38
2022-11-06T05:31:19.345Z,20.30
2022-11-06T05:33:46.180Z,15.13
2022-11-06T05:36:13.182Z,17.63
2022-11-06T05:38:40.295Z,16.88
2022-11-06T05:41:07.343Z,14.63
2022-11-06T05:43:34.181Z,12.32
2022-11-06T05:46:01.046Z,18.60
2022-11-06T05:48:28.485Z,14.65
2022-11-06T05:51:04.059Z,14.50
2022-11-06T05:53:32.388Z,14.88
2022-11-06T05:55:59.744Z,14.45
2022-11-06T05:58:27.651Z,16.27
2022-11-06T06:00:58.983Z,13.52
2022-11-06T06:03:26.209Z,13.20
2022-11-06T06:05:53.062Z,14.85
2022-11-06T06:08:20.084Z,11.40
2022-11-06T06:10:47.540Z,12.68
2022-11-06T06:13:14.894Z,14.02
2022-11-06T06:15:42.840Z,12.50
2022-11-06T06:18:15.739Z,13.75
2022-11-06T06:20:42.807Z,17.83
2022-11-06T06:23:10.669Z,10.32
2022-11-06T06:25:37.520Z,14.15
2022-11-06T06:28:04.389Z,13.32
2022-11-06T06:30:32.097Z,10.95
2022-11-06T06:33:04.815Z,11.80
2022-11-06T06:35:31.996Z,16.98
2022-11-06T06:37:58.963Z,12.60
2022-11-06T06:40:26.906Z,11.60
2022-11-06T06:42:57.328Z,9.07
2022-11-06T06:45:25.335Z,17.35
2022-11-06T06:47:52.482Z,18.27
2022-11-06T06:50:19.450Z,19.08
2022-11-06T06:52:47.407Z,18.83
2022-11-06T06:55:14.467Z,17.90
2022-11-06T06:57:41.627Z,13.60
2022-11-06T07:00:09.040Z,10.75
2022-11-06T07:02:35.912Z,12.15
2022-11-06T07:05:02.783Z,14.23
2022-11-06T07:07:30.061Z,10.75
2022-11-06T07:09:56.891Z,11.63
2022-11-06T07:12:23.781Z,12.15
2022-11-06T07:14:51.778Z,10.75
2022-11-06T07:17:18.631Z,7.13
2022-11-06T07:19:45.469Z,11.07
2022-11-06T07:22:12.401Z,9.05
2022-11-06T07:24:39.776Z,8.73
2022-11-06T07:27:06.626Z,8.32
2022-11-06T07:29:33.449Z,7.07
2022-11-06T07:32:00.332Z,7.70
2022-11-06T07:34:28.625Z,7.80
2022-11-06T07:36:55.479Z,7.35
2022-11-06T07:39:22.333Z,8.68
2022-11-06T07:41:49.194Z,10.00
2022-11-06T07:44:16.045Z,10.23
2022-11-06T07:46:42.885Z,13.63
2022-11-06T07:49:10.411Z,10.10
2022-11-06T07:51:37.233Z,13.50
2022-11-06T07:54:04.190Z,10.95
2022-11-06T07:56:31.438Z,7.97
2022-11-06T07:58:58.379Z,14.95
2022-11-06T08:01:25.379Z,13.23
2022-11-06T08:03:52.305Z,9.63
2022-11-06T08:06:19.217Z,8.90
2022-11-06T08:08:46.088Z,8.52
2022-11-06T08:11:13.278Z,8.00
2022-11-06T08:13:40.467Z,10.80
2022-11-06T08:16:13.418Z,9.80
2022-11-06T08:18:41.111Z,12.70
2022-11-06T08:21:09.075Z,8.35
2022-11-06T08:23:36.641Z,11.15
2022-11-06T08:26:06.088Z,9.75
2022-11-06T08:28:33.103Z,9.88
2022-11-06T08:31:04.488Z,14.57
2022-11-06T08:33:31.356Z,10.57
2022-11-06T08:36:02.402Z,12.15
2022-11-06T08:38:29.678Z,16.00
2022-11-06T08:40:56.595Z,14.00
2022-11-06T08:43:26.637Z,14.75
2022-11-06T08:45:53.703Z,13.03
2022-11-06T08:48:20.660Z,10.63
2022-11-06T08:50:47.609Z,14.48
2022-11-06T08:53:14.679Z,13.90
2022-11-06T08:55:41.830Z,9.77
2022-11-06T08:58:09.341Z,22.88
2022-11-06T09:00:36.863Z,10.85
2022-11-06T09:03:06.447Z,11.10
2022-11-06T09:05:33.368Z,13.48
2022-11-06T09:08:00.458Z,9.95
2022-11-06T09:10:28.057Z,11.20
2022-11-06T09:12:55.808Z,11.45
2022-11-06T09:15:26.216Z,12.27
2022-11-06T09:17:53.555Z,17.38
2022-11-06T09:20:25.004Z,16.75
2022-11-06T09:23:09.129Z,11.75
2022-11-06T09:25:36.335Z,14.95
2022-11-06T09:28:03.233Z,16.10
2022-11-06T09:30:31.794Z,14.93
2022-11-06T09:33:00.963Z,12.95
2022-11-06T09:35:30.668Z,13.52
2022-11-06T09:38:09.860Z,11.15
2022-11-06T09:40:48.668Z,15.07
2022-11-06T09:43:43.128Z,12.13
2022-11-06T09:46:25.203Z,15.90
2022-11-06T09:49:06.873Z,13.05
2022-11-06T09:51:44.324Z,14.02
2022-11-06T09:57:21.203Z,11.23
2022-11-06T09:59:49.555Z,8.55
2022-11-06T10:02:20.964Z,12.30
2022-11-06T10:05:15.699Z,10.15
2022-11-06T10:07:44.128Z,8.40
2022-11-06T10:10:23.696Z,9.40
2022-11-06T10:12:56.645Z,9.35
2022-11-06T10:15:47.135Z,9.60
2022-11-06T10:18:30.036Z,7.97
2022-11-06T10:21:15.466Z,12.93
2022-11-06T10:23:42.288Z,9.10
2022-11-06T10:26:18.545Z,12.05
2022-11-06T10:28:50.996Z,10.70
2022-11-06T10:31:35.660Z,13.27
2022-11-06T10:34:11.315Z,9.98
2022-11-06T10:36:59.282Z,9.77
2022-11-06T10:39:31.106Z,12.73
2022-11-06T10:42:17.390Z,12.57
2022-11-06T10:44:56.656Z,12.18
2022-11-06T10:47:28.406Z,12.77
2022-11-06T10:50:01.007Z,14.68
2022-11-06T10:52:49.495Z,13.80
2022-11-06T10:55:19.037Z,14.68
2022-11-06T10:57:57.883Z,12.20
2022-11-06T11:00:38.072Z,16.85
2022-11-06T11:03:31.852Z,11.30
2022-11-06T11:05:59.246Z,12.75
2022-11-06T11:08:33.133Z,12.23
2022-11-06T11:11:18.480Z,11.73
2022-11-06T11:13:48.786Z,11.43
2022-11-06T11:16:26.093Z,9.57
2022-11-06T11:18:53.404Z,11.82
2022-11-06T11:21:20.310Z,12.18
2022-11-06T11:24:10.210Z,15.98
2022-11-06T11:26:49.586Z,15.23
2022-11-06T11:29:29.797Z,12.93
2022-11-06T11:32:00.208Z,12.63
2022-11-06T11:34:30.177Z,14.68
2022-11-06T11:37:04.718Z,10.63
2022-11-06T11:39:43.138Z,15.20
2022-11-06T11:42:23.575Z,12.95
2022-11-06T11:45:10.645Z,14.15
2022-11-06T11:47:42.971Z,11.65
2022-11-06T11:50:21.981Z,12.95
2022-11-06T11:52:51.665Z,14.73
2022-11-06T11:55:23.572Z,17.10
2022-11-06T11:57:53.284Z,13.60
2022-11-06T12:00:22.828Z,12.82
2022-11-06T12:03:11.350Z,13.13
2022-11-06T12:05:40.985Z,13.63
2022-11-06T12:08:14.887Z,11.45
2022-11-06T12:10:43.625Z,9.32
2022-11-06T12:13:13.216Z,11.20
2022-11-06T12:15:50.116Z,12.10
2022-11-06T12:18:22.914Z,11.40
2022-11-06T12:21:20.081Z,9.93
2022-11-06T12:24:03.798Z,11.65
2022-11-06T12:26:51.740Z,7.10
2022-11-06T12:29:41.515Z,9.38
2022-11-06T12:32:28.905Z,16.30
2022-11-06T12:35:56.061Z,8.88
2022-11-06T12:38:47.778Z,10.55
2022-11-06T12:41:22.449Z,11.60
2022-11-06T12:43:51.086Z,8.10
2022-11-06T12:46:29.571Z,13.20
2022-11-06T12:49:34.060Z,11.73
2022-11-06T12:52:20.887Z,11.07
2022-11-06T12:55:02.456Z,12.80
2022-11-06T12:57:52.580Z,9.73
2022-11-06T13:00:20.717Z,11.88
2022-11-06T13:03:04.451Z,11.27
2022-11-06T13:05:42.953Z,12.73
2022-11-06T13:08:32.912Z,8.93
2022-11-06T13:11:25.117Z,12.80
2022-11-06T13:14:14.633Z,14.27
2022-11-06T13:17:01.844Z,15.45
2022-11-06T13:19:55.929Z,15.90
2022-11-06T13:22:29.911Z,14.10
2022-11-06T13:25:10.174Z,14.32
2022-11-06T13:27:50.006Z,13.88
2022-11-06T13:30:22.345Z,15.05
2022-11-06T13:32:54.108Z,12.85
2022-11-06T13:35:23.241Z,10.77
2022-11-06T13:37:51.346Z,13.90
2022-11-06T13:40:39.979Z,13.63
2022-11-06T13:43:32.578Z,11.98
2022-11-06T13:46:14.374Z,10.75
2022-11-06T13:48:54.473Z,13.18
2022-11-06T13:51:39.257Z,11.40
2022-11-06T13:54:27.124Z,12.10
2022-11-06T13:57:28.236Z,14.38
2022-11-06T14:00:18.385Z,11.77
2022-11-06T14:03:03.296Z,11.97
2022-11-06T14:06:10.181Z,15.00
2022-11-06T14:08:39.879Z,15.90
2022-11-06T14:11:18.822Z,16.55
2022-11-06T14:13:57.887Z,16.00
2022-11-06T14:16:28.864Z,10.65
2022-11-06T14:21:26.477Z,12.63
2022-11-06T14:23:54.909Z,10.40
2022-11-06T14:26:42.906Z,11.25
2022-11-06T14:29:27.954Z,15.25
2022-11-06T14:32:12.137Z,11.02
2022-11-06T14:34:43.200Z,17.75
2022-11-06T14:37:19.118Z,13.73
2022-11-06T14:39:54.930Z,16.85
2022-11-06T14:42:27.605Z,15.90
2022-11-06T14:44:58.942Z,22.45
2022-11-06T14:47:28.556Z,16.63
2022-11-06T14:49:58.412Z,17.90
2022-11-06T14:52:25.893Z,18.00
2022-11-06T14:55:05.048Z,16.65
2022-11-06T14:57:50.000Z,17.00
2022-11-06T15:00:52.166Z,18.75
2022-11-06T15:03:34.310Z,21.00
2022-11-06T15:06:07.079Z,16.65
2022-11-06T15:08:49.103Z,15.60
2022-11-06T15:11:31.234Z,20.05
2022-11-06T15:14:07.762Z,14.43
2022-11-06T15:16:49.893Z,15.23
2022-11-06T15:19:19.761Z,12.23
2022-11-06T15:22:17.297Z,15.75
2022-11-06T15:24:57.462Z,13.27
2022-11-06T15:27:30.805Z,29.27
2022-11-06T15:30:01.967Z,26.13
2022-11-06T15:32:35.667Z,14.27
2022-11-06T15:35:17.675Z,14.63
2022-11-06T15:37:47.831Z,15.23
2022-11-06T15:40:35.989Z,13.23
2022-11-06T15:43:27.408Z,19.45
2022-11-06T15:46:07.245Z,17.45
2022-11-06T15:48:34.942Z,20.13
2022-11-06T15:51:02.212Z,27.33
2022-11-06T15:53:30.454Z,15.85
2022-11-06T15:56:09.051Z,17.58
2022-11-06T15:58:37.910Z,13.15
2022-11-06T16:01:07.534Z,14.70
2022-11-06T16:03:48.264Z,17.92
2022-11-06T16:06:15.413Z,24.92
2022-11-06T16:08:42.375Z,16.15
2022-11-06T16:11:14.306Z,14.68
2022-11-06T16:13:43.219Z,12.88
2022-11-06T16:16:29.967Z,11.63
2022-11-06T16:18:56.892Z,9.95
2022-11-06T16:21:28.924Z,10.70
2022-11-06T16:23:58.462Z,10.43
2022-11-06T16:26:33.273Z,15.70
2022-11-06T16:29:00.885Z,13.00
2022-11-06T16:31:30.180Z,10.73
2022-11-06T16:33:58.046Z,9.13
2022-11-06T16:36:26.989Z,6.57
2022-11-06T16:38:55.201Z,9.15
2022-11-06T16:41:57.272Z,5.90
2022-11-06T16:44:37.322Z,5.43
2022-11-06T16:47:11.908Z,5.05
2022-11-06T16:49:49.050Z,6.72
2022-11-06T16:52:27.286Z,8.68
2022-11-06T16:54:57.641Z,9.18
2022-11-06T16:57:58.148Z,7.65
2022-11-06T17:00:31.237Z,6.97
2022-11-06T17:03:05.460Z,5.05
2022-11-06T17:05:36.695Z,7.63
2022-11-06T17:08:24.156Z,5.28
2022-11-06T17:10:57.145Z,4.38
2022-11-06T17:13:27.837Z,6.30
2022-11-06T17:15:57.654Z,6.70
2022-11-06T17:18:30.134Z,5.35
2022-11-06T17:21:00.234Z,5.70
2022-11-06T17:23:28.622Z,5.53
2022-11-06T17:26:12.928Z,8.27
2022-11-06T17:28:39.809Z,9.75
2022-11-06T17:31:10.068Z,8.07
2022-11-06T17:33:37.055Z,3.50
2022-11-06T17:36:12.817Z,8.45
2022-11-06T17:38:39.643Z,8.73
2022-11-06T17:41:06.589Z,6.65
2022-11-06T17:43:33.459Z,9.73
2022-11-06T17:46:02.830Z,7.90
2022-11-06T17:48:29.743Z,7.30
2022-11-06T17:51:15.074Z,8.00
2022-11-06T17:53:41.945Z,8.13
2022-11-06T17:56:08.918Z,9.77
2022-11-06T17:58:35.818Z,3.78
2022-11-06T18:01:10.923Z,10.30
2022-11-06T18:03:44.378Z,8.55
2022-11-06T18:06:12.881Z,6.47
2022-11-06T18:08:39.824Z,8.27
2022-11-06T18:11:08.360Z,10.48
2022-11-06T18:13:36.345Z,8.85
2022-11-06T18:16:04.080Z,8.00
2022-11-06T18:18:31.209Z,8.98
2022-11-06T18:20:58.065Z,5.80
2022-11-06T18:23:24.982Z,7.28
2022-11-06T18:25:56.531Z,7.53
2022-11-06T18:28:25.106Z,8.43
2022-11-06T18:30:52.944Z,6.90
2022-11-06T18:33:20.442Z,8.32
2022-11-06T18:35:47.410Z,9.00
2022-11-06T18:38:15.368Z,8.00
2022-11-06T18:40:47.306Z,10.90
2022-11-06T18:43:17.177Z,6.70
2022-11-06T18:45:44.052Z,8.82
2022-11-06T18:48:11.040Z,11.35
2022-11-06T18:50:38.425Z,11.88
2022-11-06T18:53:06.167Z,5.68
2022-11-06T18:55:33.661Z,6.60
2022-11-06T18:58:00.513Z,10.95
2022-11-06T19:00:27.416Z,9.48
2022-11-06T19:02:54.507Z,7.88
2022-11-06T19:05:21.482Z,11.23
2022-11-06T19:07:52.809Z,11.15
2022-11-06T19:10:21.912Z,12.20
2022-11-06T19:12:48.827Z,10.00
2022-11-06T19:15:15.693Z,7.68
2022-11-06T19:17:42.577Z,8.65
2022-11-06T19:20:13.789Z,9.25
2022-11-06T19:22:41.979Z,9.90
2022-11-06T19:25:09.207Z,8.35
2022-11-06T19:27:36.057Z,9.23
2022-11-06T19:30:02.954Z,9.77
2022-11-06T19:32:30.195Z,8.10
2022-11-06T19:34:57.038Z,10.35
2022-11-06T19:37:24.001Z,9.07
2022-11-06T19:39:50.886Z,5.45
2022-11-06T19:42:17.717Z,8.65
2022-11-06T19:44:44.898Z,8.15
2022-11-06T19:47:13.108Z,12.52
2022-11-06T19:49:40.133Z,14.35
2022-11-06T19:52:43.311Z,9.35
2022-11-06T19:55:26.838Z,7.63
2022-11-06T19:57:40.832Z,6.88
2022-11-06T20:00:11.488Z,8.95
2022-11-06T20:02:38.989Z,7.97
2022-11-06T20:05:07.560Z,6.38
2022-11-06T20:07:34.489Z,7.40
2022-11-06T20:10:02.885Z,9.02
2022-11-06T20:12:29.819Z,14.43
2022-11-06T20:14:56.655Z,8.52
2022-11-06T20:17:23.511Z,7.72
2022-11-06T20:19:50.388Z,9.35
2022-11-06T20:22:17.239Z,9.68
2022-11-06T20:24:44.369Z,11.60
2022-11-06T20:27:11.766Z,15.23
2022-11-06T20:29:38.671Z,7.68
2022-11-06T20:32:05.877Z,14.25
2022-11-06T20:34:32.762Z,11.35
2022-11-06T20:36:59.575Z,8.13
2022-11-06T20:39:26.465Z,7.53
2022-11-06T20:41:53.328Z,8.63
2022-11-06T20:44:20.213Z,10.77
2022-11-06T20:46:47.917Z,9.27
2022-11-06T20:49:15.098Z,11.13
2022-11-06T20:52:11.584Z,10.07
2022-11-06T20:54:28.934Z,11.32
2022-11-06T20:56:55.780Z,10.75
2022-11-06T20:59:23.002Z,11.88
2022-11-06T21:01:50.068Z,13.02
2022-11-06T21:04:17.245Z,12.80
2022-11-06T21:06:44.171Z,12.45
2022-11-06T21:09:11.077Z,13.57
2022-11-06T21:11:38.030Z,12.70
2022-11-06T21:14:05.015Z,11.38
2022-11-06T21:16:34.619Z,15.93
2022-11-06T21:19:02.676Z,13.50
2022-11-06T21:21:33.181Z,12.40
2022-11-06T21:24:01.809Z,14.52
2022-11-06T21:26:30.907Z,11.40
2022-11-06T21:28:58.113Z,8.63
2022-11-06T21:31:28.645Z,12.05
2022-11-06T21:33:57.432Z,12.07
2022-11-06T21:36:29.812Z,7.50
2022-11-06T21:38:59.950Z,10.20
2022-11-06T21:41:28.879Z,15.95
2022-11-06T21:43:56.342Z,13.55
2022-11-06T21:46:23.471Z,17.90
2022-11-06T21:51:33.635Z,16.95
2022-11-06T21:54:19.011Z,17.25
2022-11-06T21:56:49.921Z,12.73
2022-11-06T22:01:45.274Z,10.95
2022-11-06T22:04:12.824Z,11.82
2022-11-06T22:06:42.038Z,15.98
2022-11-06T22:09:10.760Z,10.98
2022-11-06T22:11:40.123Z,17.33
2022-11-06T22:14:10.821Z,13.10
2022-11-06T22:16:40.614Z,12.05
2022-11-06T22:19:08.720Z,16.30
2022-11-06T22:21:37.479Z,13.05
2022-11-06T22:24:04.912Z,11.98
2022-11-06T22:26:33.387Z,13.45
2022-11-06T22:29:03.711Z,13.38
2022-11-06T22:31:30.559Z,15.35
2022-11-06T22:33:57.911Z,9.27
2022-11-06T22:36:25.340Z,11.18
2022-11-06T22:38:52.391Z,12.15
2022-11-06T22:41:23.752Z,8.45
2022-11-06T22:43:51.449Z,13.15
2022-11-06T22:46:21.062Z,11.43
2022-11-06T22:48:48.427Z,15.45
2022-11-06T22:51:18.675Z,12.40
2022-11-06T22:53:45.609Z,10.98
2022-11-06T22:56:12.912Z,9.95
2022-11-06T22:58:41.040Z,12.23
2022-11-06T23:01:08.794Z,9.68
2022-11-06T23:03:36.048Z,9.48
2022-11-06T23:06:08.157Z,7.95
2022-11-06T23:08:39.029Z,9.18
2022-11-06T23:11:11.529Z,13.77
2022-11-06T23:13:39.327Z,12.07
2022-11-06T23:16:08.329Z,10.10
2022-11-06T23:18:35.344Z,9.50
2022-11-06T23:21:02.454Z,8.10
2022-11-06T23:23:29.326Z,16.38
2022-11-06T23:25:56.210Z,12.02
2022-11-06T23:28:23.084Z,11.82
2022-11-06T23:30:49.924Z,15.25
2022-11-06T23:33:17.116Z,15.20
2022-11-06T23:35:44.197Z,11.73
2022-11-06T23:38:11.057Z,9.00
2022-11-06T23:40:37.905Z,12.15
2022-11-06T23:43:04.809Z,9.07
2022-11-06T23:45:49.463Z,11.05
2022-11-06T23:48:17.743Z,8.10
2022-11-06T23:50:47.114Z,10.50
2022-11-06T23:53:16.472Z,18.13
2022-11-06T23:55:43.723Z,11.18
2022-11-06T23:58:10.731Z,10.20
